Roy, Louisiana
Current Conditions -  °F | °C
As of 6:55 PM on Wednesday 17 Dec 2014 (Local Time) from KMNE Reporting Station
Broken Clouds Broken Clouds  
Wind Chill: 44°   Ceiling: 9000
Heat Index: 46°   Visibility: 10mi
Dew Point: 37°   Wind: 6mph
Humidity: 71%   Direction: 90°E
Pressure: 30.17"   Gusts: NA
Location:  32.2628°N, 93.0795°W
Report Text: KMNE 180055Z AUTO 09005KT 10SM BKN090 08/03 A3017 RMK AO2
Loading
Personal Weather Stations






























Interactive Weather Map New forecast layout! Learn more

10-Day Weather Forecast

Advertisements
Track Severe Weather on mobile